createdAt,value
2022-10-16T00:01:36.930Z,15.00
2022-10-16T00:04:05.321Z,15.00
2022-10-16T00:06:34.716Z,15.00
2022-10-16T00:09:02.862Z,15.10
2022-10-16T00:11:34.207Z,15.10
2022-10-16T00:14:04.049Z,15.10
2022-10-16T00:16:32.571Z,15.10
2022-10-16T00:19:00.638Z,15.00
2022-10-16T00:21:30.260Z,15.00
2022-10-16T00:24:01.755Z,15.00
2022-10-16T00:26:30.625Z,15.10
2022-10-16T00:28:58.638Z,15.00
2022-10-16T00:31:26.476Z,15.00
2022-10-16T00:33:54.207Z,15.00
2022-10-16T00:36:23.857Z,15.00
2022-10-16T00:38:53.899Z,15.00
2022-10-16T00:41:24.574Z,15.00
2022-10-16T00:43:54.549Z,15.00
2022-10-16T00:46:24.903Z,15.00
2022-10-16T00:48:56.750Z,15.10
2022-10-16T00:51:29.105Z,15.10
2022-10-16T00:53:58.130Z,15.20
2022-10-16T00:56:27.215Z,15.20
2022-10-16T00:58:54.997Z,15.20
2022-10-16T01:01:22.943Z,15.20
2022-10-16T01:03:50.672Z,15.30
2022-10-16T01:09:14.852Z,15.20
2022-10-16T01:11:53.173Z,15.20
2022-10-16T01:14:28.179Z,15.10
2022-10-16T01:17:01.801Z,15.10
2022-10-16T01:19:59.927Z,15.10
2022-10-16T01:22:32.073Z,15.20
2022-10-16T01:25:07.269Z,15.20
2022-10-16T01:27:41.328Z,15.20
2022-10-16T01:30:15.016Z,15.20
2022-10-16T01:32:46.541Z,15.20
2022-10-16T01:35:19.785Z,15.10
2022-10-16T01:37:51.420Z,15.00
2022-10-16T01:40:21.310Z,14.90
2022-10-16T01:42:55.232Z,14.90
2022-10-16T01:45:23.608Z,14.80
2022-10-16T01:47:53.720Z,14.70
2022-10-16T01:50:22.904Z,14.70
2022-10-16T01:52:54.666Z,14.70
2022-10-16T01:55:26.566Z,14.60
2022-10-16T01:57:56.667Z,14.60
2022-10-16T02:00:25.427Z,14.60
2022-10-16T02:02:56.135Z,14.60
2022-10-16T02:05:28.352Z,14.60
2022-10-16T02:07:57.715Z,14.60
2022-10-16T02:10:31.708Z,14.60
2022-10-16T02:13:05.780Z,14.60
2022-10-16T02:18:40.869Z,14.60
2022-10-16T02:21:16.185Z,14.50
2022-10-16T02:23:52.285Z,14.50
2022-10-16T02:26:29.436Z,14.50
2022-10-16T02:29:02.694Z,14.50
2022-10-16T02:31:36.049Z,14.50
2022-10-16T02:34:06.930Z,14.40
2022-10-16T02:36:37.365Z,14.40
2022-10-16T02:39:06.090Z,14.40
2022-10-16T02:41:34.493Z,14.30
2022-10-16T02:44:03.515Z,14.30
2022-10-16T02:46:31.274Z,14.30
2022-10-16T02:48:58.957Z,14.20
2022-10-16T02:51:26.669Z,14.20
2022-10-16T02:53:54.408Z,14.20
2022-10-16T02:56:22.090Z,14.20
2022-10-16T02:58:49.817Z,14.20
2022-10-16T03:01:18.902Z,14.20
2022-10-16T03:03:46.658Z,14.10
2022-10-16T03:06:14.356Z,14.00
2022-10-16T03:08:42.060Z,14.00
2022-10-16T03:11:09.984Z,14.00
2022-10-16T03:13:37.668Z,13.90
2022-10-16T03:16:06.112Z,13.80
2022-10-16T03:18:35.152Z,13.80
2022-10-16T03:21:02.903Z,13.80
2022-10-16T03:25:58.460Z,13.80
2022-10-16T03:28:26.194Z,13.70
2022-10-16T03:30:53.891Z,13.70
2022-10-16T03:33:21.599Z,13.70
2022-10-16T03:35:54.992Z,13.60
2022-10-16T03:38:23.229Z,13.60
2022-10-16T03:40:50.970Z,13.50
2022-10-16T03:43:18.676Z,13.40
2022-10-16T03:45:46.400Z,13.40
2022-10-16T03:48:14.148Z,13.40
2022-10-16T03:50:41.809Z,13.40
2022-10-16T03:53:10.837Z,13.40
2022-10-16T03:55:38.803Z,13.50
2022-10-16T03:58:06.489Z,13.50
2022-10-16T04:00:35.294Z,13.50
2022-10-16T04:03:03.069Z,13.50
2022-10-16T04:05:30.763Z,13.50
2022-10-16T04:07:58.456Z,13.50
2022-10-16T04:10:27.485Z,13.50
2022-10-16T04:12:56.933Z,13.50
2022-10-16T04:15:24.838Z,13.50
2022-10-16T04:17:53.449Z,13.40
2022-10-16T04:20:21.274Z,13.40
2022-10-16T04:22:48.954Z,13.40
2022-10-16T04:25:16.660Z,13.40
2022-10-16T04:27:46.244Z,13.50
2022-10-16T04:30:14.784Z,13.40
2022-10-16T04:32:42.767Z,13.50
2022-10-16T04:35:10.960Z,13.50
2022-10-16T04:37:38.676Z,13.50
2022-10-16T04:40:07.460Z,13.50
2022-10-16T04:42:35.168Z,13.50
2022-10-16T04:45:04.736Z,13.50
2022-10-16T04:47:32.489Z,13.50
2022-10-16T04:50:01.993Z,13.50
2022-10-16T04:52:29.822Z,13.50
2022-10-16T04:55:01.553Z,13.50
2022-10-16T04:57:29.589Z,13.50
2022-10-16T04:59:57.275Z,13.50
2022-10-16T05:02:26.649Z,13.60
2022-10-16T05:04:54.404Z,13.50
2022-10-16T05:07:22.227Z,13.50
2022-10-16T05:09:49.935Z,13.60
2022-10-16T05:12:17.672Z,13.60
2022-10-16T05:14:45.354Z,13.60
2022-10-16T05:17:13.060Z,13.50
2022-10-16T05:19:42.081Z,13.50
2022-10-16T05:22:09.770Z,13.50
2022-10-16T05:24:37.467Z,13.50
2022-10-16T05:27:05.159Z,13.50
2022-10-16T05:29:32.998Z,13.50
2022-10-16T05:32:00.685Z,13.40
2022-10-16T05:34:28.373Z,13.40
2022-10-16T05:36:57.375Z,13.30
2022-10-16T05:39:25.190Z,13.30
2022-10-16T05:41:53.290Z,13.30
2022-10-16T05:44:21.545Z,13.30
2022-10-16T05:46:49.397Z,13.40
2022-10-16T05:49:17.113Z,13.40
2022-10-16T05:51:44.869Z,13.40
2022-10-16T05:54:14.170Z,13.50
2022-10-16T05:56:41.977Z,13.50
2022-10-16T05:59:09.678Z,13.60
2022-10-16T06:01:37.385Z,13.70
2022-10-16T06:04:05.281Z,13.70
2022-10-16T06:06:33.072Z,13.70
2022-10-16T06:09:00.780Z,13.80
2022-10-16T06:11:31.837Z,13.90
2022-10-16T06:14:02.760Z,13.90
2022-10-16T06:16:31.229Z,13.90
2022-10-16T06:19:00.170Z,14.00
2022-10-16T06:21:29.304Z,14.00
2022-10-16T06:23:58.324Z,14.00
2022-10-16T06:26:29.264Z,14.00
2022-10-16T06:28:58.414Z,13.90
2022-10-16T06:31:28.555Z,13.90
2022-10-16T06:33:57.064Z,13.90
2022-10-16T06:36:25.652Z,13.80
2022-10-16T06:38:54.006Z,13.80
2022-10-16T06:41:23.105Z,13.70
2022-10-16T06:43:53.055Z,13.60
2022-10-16T06:46:23.165Z,13.60
2022-10-16T06:48:51.120Z,13.50
2022-10-16T06:51:20.053Z,13.50
2022-10-16T06:54:02.257Z,13.40
2022-10-16T06:56:31.888Z,13.40
2022-10-16T06:59:01.780Z,13.40
2022-10-16T07:01:29.712Z,13.40
2022-10-16T07:03:57.703Z,13.50
2022-10-16T07:06:27.535Z,13.60
2022-10-16T07:08:55.444Z,13.80
2022-10-16T07:11:25.155Z,13.90
2022-10-16T07:13:56.146Z,14.00
2022-10-16T07:16:27.849Z,14.20
2022-10-16T07:18:59.469Z,14.30
2022-10-16T07:21:29.710Z,14.50
2022-10-16T07:23:59.288Z,14.70
2022-10-16T07:26:27.984Z,14.80
2022-10-16T07:28:56.128Z,14.90
2022-10-16T07:31:25.364Z,14.90
2022-10-16T07:33:53.188Z,14.90
2022-10-16T07:36:22.036Z,15.00
2022-10-16T07:38:51.894Z,15.00
2022-10-16T07:41:22.178Z,14.90
2022-10-16T07:43:51.444Z,15.00
2022-10-16T07:46:21.179Z,15.00
2022-10-16T07:48:50.568Z,15.10
2022-10-16T07:51:20.073Z,15.10
2022-10-16T07:53:48.103Z,15.20
2022-10-16T07:56:16.824Z,15.30
2022-10-16T07:58:45.071Z,15.40
2022-10-16T08:01:15.040Z,15.50
2022-10-16T08:03:44.269Z,15.60
2022-10-16T08:06:13.410Z,15.70
2022-10-16T08:08:41.105Z,15.80
2022-10-16T08:11:09.168Z,15.90
2022-10-16T08:13:36.984Z,16.00
2022-10-16T08:16:08.642Z,15.90
2022-10-16T08:18:37.450Z,15.90
2022-10-16T08:21:06.559Z,15.80
2022-10-16T08:23:35.936Z,15.80
2022-10-16T08:26:08.323Z,15.90
2022-10-16T08:28:37.010Z,15.90
2022-10-16T08:31:09.693Z,15.80
2022-10-16T08:33:37.926Z,15.80
2022-10-16T08:36:07.045Z,15.90
2022-10-16T08:38:36.351Z,15.80
2022-10-16T08:41:22.969Z,15.90
2022-10-16T08:44:08.769Z,15.80
2022-10-16T08:46:50.535Z,15.90
2022-10-16T08:49:19.416Z,16.00
2022-10-16T08:51:50.337Z,16.10
2022-10-16T08:54:29.594Z,16.10
2022-10-16T08:56:58.199Z,16.20
2022-10-16T08:59:25.856Z,16.30
2022-10-16T09:01:54.246Z,16.30
2022-10-16T09:04:56.627Z,16.20
2022-10-16T09:07:32.750Z,16.30
2022-10-16T09:10:23.309Z,16.40
2022-10-16T09:12:57.305Z,16.40
2022-10-16T09:15:33.108Z,16.50
2022-10-16T09:18:08.532Z,16.60
2022-10-16T09:20:53.300Z,16.70
2022-10-16T09:23:26.237Z,16.80
2022-10-16T09:25:57.151Z,16.80
2022-10-16T09:28:24.925Z,16.90
2022-10-16T09:30:53.247Z,17.00
2022-10-16T09:33:25.073Z,17.00
2022-10-16T09:35:55.213Z,17.00
2022-10-16T09:38:24.791Z,17.10
2022-10-16T09:40:58.998Z,17.20
2022-10-16T09:43:37.237Z,17.10
2022-10-16T09:46:07.040Z,17.00
2022-10-16T09:48:39.578Z,17.00
2022-10-16T09:51:18.351Z,16.90
2022-10-16T09:53:47.863Z,16.90
2022-10-16T09:56:24.222Z,16.80
2022-10-16T09:58:54.348Z,16.90
2022-10-16T10:01:23.980Z,16.80
2022-10-16T10:03:53.740Z,16.90
2022-10-16T10:06:26.867Z,16.90
2022-10-16T10:09:06.842Z,17.00
2022-10-16T10:11:56.235Z,17.00
2022-10-16T10:14:28.937Z,17.10
2022-10-16T10:17:12.095Z,17.10
2022-10-16T10:19:41.449Z,17.10
2022-10-16T10:22:19.665Z,17.20
2022-10-16T10:24:57.365Z,17.30
2022-10-16T10:27:34.544Z,17.30
2022-10-16T10:30:09.719Z,17.20
2022-10-16T10:32:46.018Z,17.10
2022-10-16T10:35:18.414Z,17.10
2022-10-16T10:38:05.107Z,17.10
2022-10-16T10:40:45.620Z,17.20
2022-10-16T10:43:22.804Z,17.20
2022-10-16T10:45:57.345Z,17.20
2022-10-16T10:48:46.612Z,17.40
2022-10-16T10:51:20.484Z,17.60
2022-10-16T10:53:57.614Z,17.80
2022-10-16T10:56:43.296Z,18.00
2022-10-16T10:59:41.920Z,18.10
2022-10-16T11:02:20.028Z,18.10
2022-10-16T11:05:18.925Z,18.00
2022-10-16T11:07:51.532Z,17.90
2022-10-16T11:10:23.485Z,17.90
2022-10-16T11:12:56.733Z,17.80
2022-10-16T11:15:30.178Z,17.80
2022-10-16T11:18:05.076Z,17.80
2022-10-16T11:20:36.476Z,17.90
2022-10-16T11:23:11.340Z,17.90
2022-10-16T11:25:40.985Z,17.90
2022-10-16T11:28:13.491Z,17.90
2022-10-16T11:30:46.498Z,17.90
2022-10-16T11:33:32.298Z,17.90
2022-10-16T11:36:05.894Z,17.90
2022-10-16T11:38:39.615Z,18.10
2022-10-16T11:41:17.331Z,18.30
2022-10-16T11:43:51.195Z,18.50
2022-10-16T11:46:22.265Z,18.70
2022-10-16T11:48:56.106Z,18.80
2022-10-16T11:51:31.987Z,18.80
2022-10-16T11:54:06.622Z,18.70
2022-10-16T11:56:38.179Z,18.60
2022-10-16T11:59:10.380Z,18.50
2022-10-16T12:01:43.910Z,18.40
2022-10-16T12:04:23.277Z,18.20
2022-10-16T12:06:54.738Z,18.00
2022-10-16T12:09:26.886Z,17.80
2022-10-16T12:11:54.991Z,17.70
2022-10-16T12:14:57.441Z,17.70
2022-10-16T12:17:35.580Z,17.70
2022-10-16T12:20:23.033Z,17.70
2022-10-16T12:22:55.014Z,17.70
2022-10-16T12:25:25.858Z,17.70
2022-10-16T12:28:04.308Z,17.70
2022-10-16T12:30:35.957Z,17.80
2022-10-16T12:33:05.783Z,17.90
2022-10-16T12:35:37.910Z,18.00
2022-10-16T12:40:46.059Z,18.20
2022-10-16T12:43:30.776Z,18.30
2022-10-16T12:46:04.186Z,18.30
2022-10-16T12:48:42.486Z,18.40
2022-10-16T12:51:27.366Z,18.30
2022-10-16T12:54:02.632Z,18.20
2022-10-16T12:56:43.069Z,18.10
2022-10-16T12:59:22.769Z,18.20
2022-10-16T13:02:06.082Z,18.40
2022-10-16T13:04:49.045Z,18.50
2022-10-16T13:07:34.762Z,18.40
2022-10-16T13:10:16.436Z,18.40
2022-10-16T13:13:15.417Z,18.50
2022-10-16T13:15:57.012Z,18.40
2022-10-16T13:18:31.603Z,18.40
2022-10-16T13:21:11.476Z,18.30
2022-10-16T13:23:50.035Z,18.20
2022-10-16T13:26:30.866Z,18.20
2022-10-16T13:29:01.990Z,18.20
2022-10-16T13:31:31.845Z,18.30
2022-10-16T13:34:05.038Z,18.30
2022-10-16T13:36:44.984Z,18.30
2022-10-16T13:39:18.193Z,18.30
2022-10-16T13:41:46.108Z,18.20
2022-10-16T13:44:17.956Z,18.20
2022-10-16T13:46:45.829Z,18.10
2022-10-16T13:49:16.296Z,18.10
2022-10-16T13:51:55.265Z,18.10
2022-10-16T13:54:24.690Z,18.10
2022-10-16T13:57:03.555Z,18.00
2022-10-16T13:59:38.547Z,17.90
2022-10-16T14:02:19.085Z,17.90
2022-10-16T14:04:47.634Z,17.70
2022-10-16T14:07:21.567Z,17.70
2022-10-16T14:09:52.803Z,17.60
2022-10-16T14:12:22.962Z,17.60
2022-10-16T14:14:55.435Z,17.60
2022-10-16T14:17:26.535Z,17.50
2022-10-16T14:19:59.642Z,17.60
2022-10-16T14:22:35.175Z,17.60
2022-10-16T14:25:20.915Z,17.60
2022-10-16T14:27:59.896Z,17.70
2022-10-16T14:30:28.952Z,17.70
2022-10-16T14:32:58.770Z,17.70
2022-10-16T14:35:33.334Z,17.70
2022-10-16T14:38:02.727Z,17.70
2022-10-16T14:40:33.625Z,17.70
2022-10-16T14:43:02.452Z,17.80
2022-10-16T14:45:32.403Z,17.80
2022-10-16T14:48:02.862Z,17.80
2022-10-16T14:50:30.846Z,17.90
2022-10-16T14:52:58.594Z,17.90
2022-10-16T14:55:27.268Z,17.80
2022-10-16T14:57:59.660Z,17.70
2022-10-16T15:00:28.780Z,17.60
2022-10-16T15:02:56.436Z,17.60
2022-10-16T15:05:26.922Z,17.50
2022-10-16T15:07:56.018Z,17.40
2022-10-16T15:10:25.943Z,17.30
2022-10-16T15:12:53.935Z,17.40
2022-10-16T15:15:35.521Z,17.40
2022-10-16T15:18:03.754Z,17.40
2022-10-16T15:20:34.686Z,17.30
2022-10-16T15:23:03.379Z,17.20
2022-10-16T15:25:37.443Z,17.20
2022-10-16T15:28:06.535Z,17.10
2022-10-16T15:30:36.501Z,17.10
2022-10-16T15:33:05.947Z,17.00
2022-10-16T15:35:33.796Z,17.00
2022-10-16T15:38:01.877Z,16.80
2022-10-16T15:40:29.683Z,16.80
2022-10-16T15:42:57.467Z,16.80
2022-10-16T15:45:25.342Z,16.70
2022-10-16T15:47:54.346Z,16.60
2022-10-16T15:50:22.095Z,16.60
2022-10-16T15:52:49.757Z,16.50
2022-10-16T15:55:18.376Z,16.50
2022-10-16T15:57:47.056Z,16.40
2022-10-16T16:00:16.980Z,16.40
2022-10-16T16:02:45.927Z,16.30
2022-10-16T16:05:15.106Z,16.30
2022-10-16T16:07:42.783Z,16.20
2022-10-16T16:10:13.231Z,16.10
2022-10-16T16:12:41.345Z,16.10
2022-10-16T16:15:11.225Z,16.00
2022-10-16T16:17:39.336Z,15.90
2022-10-16T16:20:08.560Z,15.90
2022-10-16T16:22:37.663Z,15.70
2022-10-16T16:25:06.002Z,15.70
2022-10-16T16:27:35.162Z,15.60
2022-10-16T16:30:04.474Z,15.60
2022-10-16T16:32:32.558Z,15.60
2022-10-16T16:35:00.398Z,15.50
2022-10-16T16:37:28.439Z,15.40
2022-10-16T16:39:59.330Z,15.40
2022-10-16T16:42:27.536Z,15.30
2022-10-16T16:44:55.640Z,15.30
2022-10-16T16:47:23.356Z,15.20
2022-10-16T16:49:51.852Z,15.10
2022-10-16T16:52:19.797Z,15.00
2022-10-16T16:54:52.658Z,15.00
2022-10-16T16:57:22.738Z,14.90
2022-10-16T16:59:52.649Z,14.90
2022-10-16T17:02:20.585Z,14.80
2022-10-16T17:04:48.511Z,14.80
2022-10-16T17:07:17.509Z,14.80
2022-10-16T17:09:46.197Z,14.70
2022-10-16T17:12:14.011Z,14.70
2022-10-16T17:14:43.106Z,14.60
2022-10-16T17:17:10.877Z,14.60
2022-10-16T17:19:38.640Z,14.50
2022-10-16T17:22:06.406Z,14.50
2022-10-16T17:24:34.190Z,14.50
2022-10-16T17:27:01.886Z,14.40
2022-10-16T17:29:29.573Z,14.40
2022-10-16T17:31:59.301Z,14.40
2022-10-16T17:34:27.035Z,14.30
2022-10-16T17:36:54.849Z,14.30
2022-10-16T17:39:23.260Z,14.20
2022-10-16T17:41:50.997Z,14.20
2022-10-16T17:44:21.876Z,14.10
2022-10-16T17:46:51.487Z,14.00
2022-10-16T17:49:21.424Z,13.90
2022-10-16T17:51:52.281Z,13.90
2022-10-16T17:54:20.501Z,13.80
2022-10-16T17:56:48.779Z,13.80
2022-10-16T17:59:16.697Z,13.70
2022-10-16T18:01:46.196Z,13.70
2022-10-16T18:04:16.532Z,13.60
2022-10-16T18:06:47.376Z,13.60
2022-10-16T18:09:17.997Z,13.50
2022-10-16T18:11:46.388Z,13.50
2022-10-16T18:14:15.916Z,13.40
2022-10-16T18:16:44.070Z,13.30
2022-10-16T18:19:12.526Z,13.30
2022-10-16T18:21:40.501Z,13.30
2022-10-16T18:24:10.664Z,13.20
2022-10-16T18:26:38.678Z,13.20
2022-10-16T18:29:06.699Z,13.20
2022-10-16T18:31:39.008Z,13.10
2022-10-16T18:34:09.729Z,13.10
2022-10-16T18:36:37.713Z,13.10
2022-10-16T18:39:10.296Z,13.00
2022-10-16T18:41:41.247Z,13.00
2022-10-16T18:44:10.756Z,13.00
2022-10-16T18:46:39.257Z,12.90
2022-10-16T18:49:07.372Z,12.90
2022-10-16T18:51:37.064Z,12.90
2022-10-16T18:54:08.450Z,12.90
2022-10-16T18:56:36.281Z,12.90
2022-10-16T18:59:07.719Z,12.90
2022-10-16T19:01:38.593Z,12.90
2022-10-16T19:04:08.505Z,12.90
2022-10-16T19:06:38.780Z,12.90
2022-10-16T19:09:08.410Z,12.90
2022-10-16T19:11:39.305Z,12.90
2022-10-16T19:14:11.341Z,12.90
2022-10-16T19:16:42.671Z,12.80
2022-10-16T19:19:15.053Z,12.70
2022-10-16T19:21:43.546Z,12.70
2022-10-16T19:24:14.178Z,12.60
2022-10-16T19:26:42.564Z,12.50
2022-10-16T19:29:12.219Z,12.50
2022-10-16T19:31:41.305Z,12.40
2022-10-16T19:34:11.165Z,12.30
2022-10-16T19:36:40.730Z,12.30
2022-10-16T19:39:12.785Z,12.30
2022-10-16T19:41:40.625Z,12.20
2022-10-16T19:44:12.314Z,12.20
2022-10-16T19:46:40.141Z,12.20
2022-10-16T19:49:10.010Z,12.20
2022-10-16T19:51:38.932Z,12.20
2022-10-16T19:54:09.312Z,12.30
2022-10-16T19:56:37.787Z,12.30
2022-10-16T19:59:07.205Z,12.40
2022-10-16T20:01:36.637Z,12.40
2022-10-16T20:04:04.609Z,12.40
2022-10-16T20:06:32.398Z,12.40
2022-10-16T20:09:00.187Z,12.40
2022-10-16T20:11:30.010Z,12.40
2022-10-16T20:13:58.667Z,12.40
2022-10-16T20:16:26.935Z,12.40
2022-10-16T20:18:56.702Z,12.50
2022-10-16T20:21:26.392Z,12.40
2022-10-16T20:23:54.346Z,12.50
2022-10-16T20:26:23.969Z,12.50
2022-10-16T20:28:51.890Z,12.50
2022-10-16T20:31:22.557Z,12.60
2022-10-16T20:33:50.958Z,12.60
2022-10-16T20:36:21.119Z,12.60
2022-10-16T20:38:49.426Z,12.70
2022-10-16T20:41:18.630Z,12.60
2022-10-16T20:43:48.386Z,12.60
2022-10-16T20:46:18.814Z,12.60
2022-10-16T20:48:47.594Z,12.60
2022-10-16T20:51:17.414Z,12.60
2022-10-16T20:53:48.171Z,12.60
2022-10-16T20:56:17.443Z,12.60
2022-10-16T20:58:46.284Z,12.60
2022-10-16T21:01:16.178Z,12.60
2022-10-16T21:03:44.741Z,12.60
2022-10-16T21:06:12.716Z,12.60
2022-10-16T21:08:48.865Z,12.60
2022-10-16T21:11:19.538Z,12.60
2022-10-16T21:13:47.725Z,12.60
2022-10-16T21:16:16.770Z,12.60
2022-10-16T21:18:45.050Z,12.60
2022-10-16T21:21:20.655Z,12.60
2022-10-16T21:23:50.148Z,12.60
2022-10-16T21:26:20.931Z,12.50
2022-10-16T21:28:48.704Z,12.50
2022-10-16T21:31:19.692Z,12.60
2022-10-16T21:33:48.283Z,12.50
2022-10-16T21:36:18.558Z,12.60
2022-10-16T21:41:22.412Z,12.50
2022-10-16T21:43:50.911Z,12.50
2022-10-16T21:46:20.726Z,12.50
2022-10-16T21:48:48.854Z,12.50
2022-10-16T21:51:17.856Z,12.50
2022-10-16T21:53:45.642Z,12.50
2022-10-16T21:56:14.683Z,12.50
2022-10-16T21:58:43.798Z,12.50
2022-10-16T22:01:13.378Z,12.50
2022-10-16T22:03:41.333Z,12.50
2022-10-16T22:06:10.157Z,12.60
2022-10-16T22:08:39.068Z,12.60
2022-10-16T22:11:09.712Z,12.60
2022-10-16T22:13:38.129Z,12.60
2022-10-16T22:16:07.771Z,12.60
2022-10-16T22:18:36.986Z,12.60
2022-10-16T22:21:07.328Z,12.70
2022-10-16T22:23:35.213Z,12.70
2022-10-16T22:26:04.415Z,12.70
2022-10-16T22:28:32.253Z,12.70
2022-10-16T22:31:02.833Z,12.70
2022-10-16T22:36:06.470Z,12.80
2022-10-16T22:38:35.758Z,12.80
2022-10-16T22:41:04.189Z,12.80
2022-10-16T22:43:32.133Z,12.80
2022-10-16T22:46:03.458Z,12.80
2022-10-16T22:48:32.524Z,12.90
2022-10-16T22:51:00.293Z,12.90
2022-10-16T22:53:28.019Z,12.90
2022-10-16T22:55:55.712Z,12.90
2022-10-16T22:58:23.606Z,12.90
2022-10-16T23:00:51.492Z,12.90
2022-10-16T23:03:19.271Z,12.90
2022-10-16T23:05:48.362Z,12.90
2022-10-16T23:08:16.986Z,12.90
2022-10-16T23:10:46.445Z,13.00
2022-10-16T23:13:14.854Z,13.00
2022-10-16T23:15:43.315Z,13.00
2022-10-16T23:18:11.603Z,13.00
2022-10-16T23:20:41.398Z,13.10
2022-10-16T23:23:11.173Z,13.10
2022-10-16T23:25:45.820Z,13.20
2022-10-16T23:30:46.175Z,13.20
2022-10-16T23:33:13.881Z,13.30
2022-10-16T23:35:42.049Z,13.30
2022-10-16T23:38:11.082Z,13.30
2022-10-16T23:40:38.866Z,13.30
2022-10-16T23:43:06.760Z,13.30
2022-10-16T23:45:34.480Z,13.30
2022-10-16T23:48:02.235Z,13.30
2022-10-16T23:50:30.739Z,13.30
2022-10-16T23:52:58.471Z,13.30
2022-10-16T23:55:27.649Z,13.30
2022-10-16T23:57:55.381Z,13.30
